Latest Weather Observations for Lucas Heights

IDN60801

Issued at 2:02 am EST Friday 31 July 2015 (issued every 30 minutes, with the page automatically refreshed every 10 minutes)

About weather observations | Map of weather stations | Latest weather observations for NSW | Other Formats
Station Details ID: 066023 Name: LUCAS HEIGHTS AWS Lat: -34.05 Lon: 150.98 Height: 140.0 m
Data from the previous 72 hours. | See also: Recent months for locations in New South Wales
Date/Time
EST
Temp
°C
App
Temp
°C
Dew
Point
Rel
Hum
%
Delta-T
°C
Wind Press
QNH
hPa
Press
MSL
hPa
Rain
since 9 am
mm
Dir
 
Spd
km/h
Gust
km/h
Spd
kts
Gust
kts
31/01:45am 11.9 6.8 2.9 54 4.0 WNW 19 28 10 15 1019.0 - 0.0
31/01:30am 11.8 6.7 2.9 54 3.9 NW 19 22 10 12 1018.9 - 0.0
31/01:15am 11.8 6.5 2.8 54 4.0 NW 20 22 11 12 1018.8 - 0.0
31/01:00am 11.9 6.7 2.7 53 4.0 WNW 19 22 10 12 1018.9 - 0.0
31/12:45am 12.0 7.2 2.5 52 4.2 WNW 17 22 9 12 1019.0 - 0.0
31/12:30am 12.4 7.9 2.4 50 4.4 W 15 20 8 11 1019.2 - 0.0
31/12:15am 12.4 7.5 2.2 50 4.4 W 17 20 9 11 1019.2 - 0.0
31/12:00am 12.3 7.5 2.6 51 4.3 WNW 17 20 9 11 1019.1 - 0.0
 
Date/Time
EST
Temp
°C
App
Temp
°C
Dew
Point
Rel
Hum
%
Delta-T
°C
Wind Press
QNH
hPa
Press
MSL
hPa
Rain
since 9 am
mm
Dir
 
Spd
km/h
Gust
km/h
Spd
kts
Gust
kts
30/11:45pm 12.1 6.9 2.5 52 4.2 WNW 19 20 10 11 1018.9 - 0.0
30/11:30pm 12.0 7.1 2.3 51 4.2 NW 17 24 9 13 1018.5 - 0.0
30/11:15pm 12.4 7.9 2.2 50 4.4 NW 15 22 8 12 1018.5 - 0.0
30/11:00pm 12.5 7.3 2.2 49 4.5 NW 19 26 10 14 1018.5 - 0.0
30/10:45pm 12.4 6.6 2.3 50 4.4 WNW 22 28 12 15 1018.6 - 0.0
30/10:30pm 12.5 6.7 2.2 49 4.5 NW 22 28 12 15 1018.6 - 0.0
30/10:15pm 12.8 7.0 2.1 48 4.7 NW 22 28 12 15 1018.8 - 0.0
30/10:00pm 12.9 7.0 2.0 47 4.8 NW 22 28 12 15 1018.9 - 0.0
30/09:45pm 13.0 7.5 1.7 46 4.9 NW 20 28 11 15 1018.7 - 0.0
30/09:30pm 13.1 7.2 1.6 45 5.0 NW 22 32 12 17 1019.0 - 0.0
30/09:15pm 13.2 7.6 1.2 44 5.2 NW 20 30 11 16 1019.0 - 0.0
30/09:00pm 13.5 6.7 0.9 42 5.4 NW 26 35 14 19 1018.8 - 0.0
30/08:45pm 13.6 6.4 0.7 41 5.5 NW 28 37 15 20 1018.9 - 0.0
30/08:30pm 13.7 6.5 0.8 41 5.5 WNW 28 33 15 18 1019.0 - 0.0
30/08:15pm 13.6 7.2 1.1 42 5.4 WNW 24 32 13 17 1019.1 - 0.0
30/08:00pm 12.9 7.5 2.5 49 4.6 NW 20 30 11 16 1019.1 - 0.0
30/07:45pm 12.3 7.7 3.5 55 3.9 NW 17 28 9 15 1019.2 - 0.0
30/07:30pm 13.0 8.0 3.8 53 4.2 NW 19 22 10 12 1019.3 - 0.0
30/07:15pm 13.3 8.4 4.1 53 4.2 WNW 19 22 10 12 1019.4 - 0.0
30/07:00pm 13.7 9.2 4.0 52 4.4 WNW 17 20 9 11 1019.3 - 0.0
30/06:45pm 14.1 9.2 4.1 51 4.6 NW 19 24 10 13 1019.2 - 0.0
30/06:30pm 13.8 8.0 4.2 52 4.4 NW 24 28 13 15 1019.0 - 0.0
30/06:15pm 13.8 8.7 4.1 52 4.5 NW 20 24 11 13 1018.9 - 0.0
30/06:00pm 13.6 9.5 4.2 53 4.3 NNW 15 19 8 10 1019.0 - 0.0
30/05:45pm 13.7 9.2 4.2 52 4.4 NNW 17 20 9 11 1018.8 - 0.0
30/05:30pm 14.4 9.9 4.1 50 4.8 NW 17 20 9 11 1018.6 - 0.0
30/05:15pm 14.9 10.8 4.4 49 4.9 NNW 15 22 8 12 1018.6 - 0.0
30/05:00pm 15.0 10.2 4.5 49 4.9 NW 19 24 10 13 1018.7 - 0.0
30/04:45pm 15.5 11.1 4.8 49 5.1 NNW 17 30 9 16 1018.8 - 0.0
30/04:30pm 16.0 11.6 5.0 48 5.2 NNW 17 22 9 12 1018.8 - 0.0
30/04:15pm 16.6 12.6 5.0 46 5.6 NNW 15 20 8 11 1019.1 - 0.0
30/04:00pm 17.0 12.6 4.8 44 5.8 NNW 17 26 9 14 1019.3 - 0.0
30/03:45pm 17.3 14.1 5.2 45 5.9 NNW 11 20 6 11 1019.5 - 0.0
30/03:30pm 17.5 14.7 5.0 43 6.0 NNW 9 17 5 9 1019.7 - 0.0
30/03:15pm 17.6 14.2 3.9 40 6.5 NW 11 17 6 9 1019.9 - 0.0
30/03:00pm 17.6 14.3 4.3 41 6.3 NW 11 17 6 9 1020.0 - 0.0
30/02:45pm 17.4 14.0 4.2 41 6.3 NW 11 19 6 10 1020.1 - 0.0
30/02:30pm 17.4 14.1 4.3 42 6.2 NW 11 17 6 9 1020.3 - 0.0
30/02:15pm 17.1 13.7 4.0 41 6.2 NNW 11 19 6 10 1020.5 - 0.0
30/02:00pm 16.9 12.3 3.6 41 6.2 NW 17 28 9 15 1021.0 - 0.0
30/01:45pm 16.8 12.6 4.0 42 6.0 NW 15 24 8 13 1021.2 - 0.0
30/01:30pm 16.5 12.4 4.1 43 5.8 NW 15 22 8 12 1021.4 - 0.0
30/01:15pm 16.4 12.3 4.3 44 5.7 NNW 15 24 8 13 1021.6 - 0.0
30/01:00pm 16.0 11.9 4.4 46 5.5 NNW 15 24 8 13 1021.8 - 0.0
30/12:45pm 15.9 11.8 4.6 47 5.3 NW 15 26 8 14 1022.1 - 0.0
30/12:30pm 15.6 12.5 5.6 51 4.8 NNW 11 19 6 10 1022.3 - 0.0
30/12:15pm 15.4 12.9 6.7 56 4.3 NW 9 17 5 9 1022.7 - 0.0
30/12:00pm 14.7 12.8 7.7 63 3.5 NNW 7 17 4 9 1023.1 - 0.0
30/11:45am 13.5 11.8 7.6 67 2.9 NNW 6 11 3 6 1023.4 - 0.0
30/11:30am 12.5 10.8 7.4 71 2.5 N 6 9 3 5 1023.9 - 0.0
30/11:15am 11.6 9.5 6.6 71 2.4 N 7 11 4 6 1024.3 - 0.0
30/11:00am 11.2 9.1 6.5 73 2.2 NNW 7 13 4 7 1024.8 - 0.0
30/10:45am 10.7 8.5 6.1 73 2.2 NNW 7 9 4 5 1025.2 - 0.0
30/10:30am 10.5 7.9 5.9 73 2.1 NW 9 13 5 7 1025.3 - 0.0
30/10:15am 10.4 7.8 6.3 76 1.9 NW 9 17 5 9 1025.6 - 0.0
30/10:00am 10.1 7.1 6.0 76 1.9 WNW 11 15 6 8 1025.9 - 0.0
30/09:45am 10.3 7.4 6.6 78 1.7 WNW 11 17 6 9 1026.0 - 0.0
30/09:30am 10.2 7.8 7.0 80 1.5 WNW 9 15 5 8 1026.1 - 0.0
30/09:15am 9.5 7.6 6.8 83 1.3 WNW 6 9 3 5 1026.3 - 0.0
30/09:00am 9.3 7.5 7.0 85 1.1 W 6 9 3 5 1026.4 - 0.0
30/08:45am 8.6 6.1 6.4 86 1.0 W 9 19 5 10 1026.5 - 0.0
30/08:30am 7.9 4.5 5.9 87 0.9 W 13 20 7 11 1026.5 - 0.0
30/08:15am 7.7 3.1 5.7 87 0.9 W 19 26 10 14 1026.5 - 0.0
30/08:00am 7.2 2.0 5.3 88 0.8 WNW 22 28 12 15 1026.4 - 0.0
30/07:45am 6.9 2.1 4.9 87 0.9 WNW 19 24 10 13 1026.4 - 0.0
30/07:30am 7.0 2.6 5.0 87 0.9 WNW 17 19 9 10 1026.4 - 0.0
30/07:15am 7.4 2.8 5.5 88 0.9 WNW 19 22 10 12 1026.4 - 0.0
30/07:00am 7.1 3.1 5.1 87 0.9 WNW 15 22 8 12 1026.2 - 0.0
30/06:45am 7.1 3.5 5.1 87 0.9 WNW 13 17 7 9 1026.1 - 0.0
30/06:30am 7.0 3.0 5.1 88 0.8 WNW 15 19 8 10 1026.2 - 0.0
30/06:15am 6.5 2.8 4.6 88 0.8 WNW 13 17 7 9 1026.3 - 0.0
30/06:00am 6.1 3.5 4.0 86 0.9 WNW 7 13 4 7 1026.2 - 0.0
30/05:45am 6.6 3.7 4.5 86 0.9 W 9 13 5 7 1026.4 - 0.0
30/05:30am 7.5 4.1 5.7 88 0.8 W 13 17 7 9 1026.7 - 0.0
30/05:15am 5.9 2.1 3.9 87 0.9 W 13 17 7 9 1026.8 - 0.0
30/05:00am 6.0 3.0 3.9 86 0.9 W 9 13 5 7 1026.7 - 0.0
30/04:45am 6.4 3.4 4.2 86 1.0 W 9 13 5 7 1026.7 - 0.0
30/04:30am 7.7 4.2 5.6 86 0.9 W 13 17 7 9 1026.8 - 0.0
30/04:15am 8.1 4.4 6.1 87 0.9 W 15 17 8 9 1027.1 - 0.0
30/04:00am 7.9 4.5 5.9 87 0.9 W 13 19 7 10 1027.3 - 0.0
30/03:45am 7.7 5.0 5.7 87 0.9 WNW 9 11 5 6 1027.3 - 0.0
30/03:30am 7.6 4.9 5.6 87 0.9 WNW 9 11 5 6 1027.3 - 0.0
30/03:15am 7.9 5.3 5.9 87 0.9 NW 9 9 5 5 1027.3 - 0.0
30/03:00am 8.0 5.4 6.0 87 0.9 NNW 9 9 5 5 1027.3 - 0.0
30/02:45am 7.9 5.3 5.9 87 0.9 NNW 9 13 5 7 1027.5 - 0.0
30/02:30am 7.3 4.1 5.2 86 0.9 NNW 11 13 6 7 1027.5 - 0.0
30/02:15am 7.0 4.1 4.9 86 0.9 NNW 9 13 5 7 1027.6 - 0.0
30/02:00am 7.8 5.1 5.6 86 1.0 NNW 9 13 5 7 1027.9 - 0.0
30/01:45am 9.3 6.6 7.3 87 1.0 NW 11 15 6 8 1028.3 - 0.0
30/01:30am 8.4 5.1 6.4 87 0.9 NW 13 15 7 8 1028.7 - 0.0
30/01:15am 8.5 5.2 6.6 88 0.9 WNW 13 17 7 9 1028.8 - 0.0
30/01:00am 7.1 3.5 5.2 88 0.8 WNW 13 17 7 9 1029.1 - 0.0
30/12:45am 7.1 3.9 5.2 88 0.8 WNW 11 15 6 8 1029.1 - 0.0
30/12:30am 7.5 4.4 5.5 87 0.9 WNW 11 15 6 8 1029.2 - 0.0
30/12:15am 7.4 3.9 5.4 87 0.9 WNW 13 13 7 7 1029.3 - 0.0
30/12:00am 6.5 3.2 4.5 87 0.9 NW 11 13 6 7 1029.4 - 0.0
 
Date/Time
EST
Temp
°C
App
Temp
°C
Dew
Point
Rel
Hum
%
Delta-T
°C
Wind Press
QNH
hPa
Press
MSL
hPa
Rain
since 9 am
mm
Dir
 
Spd
km/h
Gust
km/h
Spd
kts
Gust
kts
29/11:45pm 6.7 3.8 4.6 86 0.9 NW 9 13 5 7 1029.6 - 0.0
29/11:30pm 7.9 4.9 5.8 86 1.0 WNW 11 13 6 7 1029.8 - 0.0
29/11:15pm 8.0 5.0 6.1 88 0.9 WNW 11 13 6 7 1030.1 - 0.0
29/11:00pm 6.7 4.2 4.6 86 0.9 NW 7 13 4 7 1030.2 - 0.0
29/10:45pm 7.0 4.5 4.9 86 0.9 NW 7 11 4 6 1030.5 - 0.0
29/10:30pm 7.0 4.1 4.9 86 0.9 WNW 9 11 5 6 1030.8 - 0.0
29/10:15pm 6.9 4.4 4.8 86 0.9 NW 7 9 4 5 1030.8 - 0.0
29/10:00pm 7.3 4.9 5.1 86 1.0 NNW 7 7 4 4 1030.8 - 0.0
29/09:45pm 7.2 4.9 4.9 85 1.0 N 6 7 3 4 1030.8 - 0.0
29/09:30pm 7.4 5.1 5.0 85 1.1 NNE 6 7 3 4 1030.7 - 0.0
29/09:15pm 7.6 5.2 5.1 84 1.1 NNE 7 9 4 5 1030.7 - 0.0
29/09:00pm 7.8 5.0 5.3 84 1.1 NE 9 11 5 6 1030.7 - 0.0
29/08:45pm 7.7 4.9 5.1 83 1.2 ENE 9 11 5 6 1030.6 - 0.0
29/08:30pm 8.1 5.3 5.3 82 1.3 ENE 9 11 5 6 1030.6 - 0.0
29/08:15pm 8.5 5.8 5.6 82 1.3 ENE 9 11 5 6 1030.6 - 0.0
29/08:00pm 8.5 5.8 5.4 81 1.4 ENE 9 13 5 7 1030.6 - 0.0
29/07:45pm 8.7 6.0 5.5 80 1.5 ENE 9 11 5 6 1030.8 - 0.0
29/07:30pm 9.1 6.4 5.7 79 1.6 ENE 9 13 5 7 1030.8 - 0.0
29/07:15pm 9.6 7.0 6.0 78 1.7 ENE 9 11 5 6 1030.9 - 0.0
29/07:00pm 10.0 7.8 6.3 78 1.7 ENE 7 9 4 5 1030.9 - 0.0
29/06:45pm 10.3 8.1 6.4 77 1.8 ENE 7 9 4 5 1030.8 - 0.0
29/06:30pm 10.5 8.6 6.5 76 1.9 ENE 6 9 3 5 1030.7 - 0.0
29/06:15pm 10.6 8.4 6.2 74 2.1 ENE 7 9 4 5 1030.5 - 0.0
29/06:00pm 11.0 8.8 6.3 73 2.2 ENE 7 9 4 5 1030.4 - 0.0
29/05:45pm 11.6 9.4 6.4 70 2.5 E 7 11 4 6 1030.2 - 0.0
29/05:30pm 12.2 9.7 6.6 68 2.7 E 9 13 5 7 1030.0 - 0.0
29/05:15pm 12.6 10.5 6.7 67 2.8 E 7 13 4 7 1030.0 - 0.0
29/05:00pm 13.1 11.0 6.8 65 3.1 E 7 9 4 5 1030.0 - 0.0
29/04:45pm 13.7 11.3 6.9 63 3.3 E 9 15 5 8 1029.9 - 0.0
29/04:30pm 14.3 11.9 7.0 61 3.6 E 9 13 5 7 1029.8 - 0.0
29/04:15pm 14.8 12.8 7.1 60 3.8 E 7 11 4 6 1029.9 - 0.0
29/04:00pm 14.9 12.9 7.1 59 3.9 ENE 7 11 4 6 1029.9 - 0.0
29/03:45pm 15.1 13.1 7.1 59 4.0 NE 7 13 4 7 1029.9 - 0.0
29/03:30pm 15.3 13.3 7.1 58 4.1 ENE 7 9 4 5 1030.1 - 0.0
29/03:15pm 15.5 13.7 7.1 57 4.2 NE 6 11 3 6 1030.3 - 0.0
29/03:00pm 15.6 13.6 7.2 57 4.2 ENE 7 15 4 8 1030.4 - 0.0
29/02:45pm 16.0 13.9 6.7 54 4.6 NE 7 11 4 6 1030.5 - 0.0
29/02:30pm 16.1 14.5 6.3 52 4.8 NE 4 7 2 4 1030.7 - 0.0
29/02:15pm 16.1 13.5 4.4 45 5.5 N 7 13 4 7 1030.8 - 0.0
29/02:00pm 16.0 13.0 4.1 45 5.6 NW 9 13 5 7 1031.0 - 0.0
29/01:45pm 16.3 13.8 4.7 46 5.5 NW 7 19 4 10 1031.1 - 0.0
29/01:30pm 16.8 14.6 6.0 49 5.3 N 7 17 4 9 1031.3 - 0.0
29/01:15pm 16.2 14.6 6.3 52 4.9 NE 4 9 2 5 1031.5 - 0.0
29/01:00pm 15.7 13.6 6.0 52 4.7 E 6 7 3 4 1031.8 - 0.0
29/12:45pm 15.2 13.1 6.0 54 4.5 E 6 7 3 4 1032.2 - 0.0
29/12:30pm 14.8 13.1 5.9 55 4.3 E 4 9 2 5 1032.5 - 0.0
29/12:15pm 15.0 13.7 6.2 55 4.3 SSE 2 4 1 2 1032.8 - 0.0
29/12:00pm 15.3 13.8 6.6 56 4.3 SSE 4 7 2 4 1033.1 - 0.0
29/11:45am 14.8 13.3 6.7 58 4.0 E 4 7 2 4 1033.4 - 0.0
29/11:30am 15.1 13.7 7.1 59 4.0 E 4 7 2 4 1033.7 - 0.0
29/11:15am 14.6 13.6 7.2 61 3.7 WNW 2 4 1 2 1033.9 - 0.0
29/11:00am 14.5 13.1 7.2 61 3.6 W 4 9 2 5 1034.2 - 0.0
29/10:45am 14.2 12.5 7.6 64 3.3 W 6 9 3 5 1034.5 - 0.0
29/10:30am 13.6 11.9 7.5 66 3.0 W 6 9 3 5 1034.7 - 0.0
29/10:15am 13.2 11.9 7.6 69 2.8 WSW 4 7 2 4 1034.7 - 0.0
29/10:00am 12.7 11.4 7.5 70 2.6 W 4 7 2 4 1034.8 - 0.0
29/09:45am 12.0 10.2 7.1 72 2.4 WSW 6 7 3 4 1034.8 - 0.0
29/09:30am 11.4 9.5 6.9 74 2.2 WSW 6 9 3 5 1034.9 - 0.0
29/09:15am 10.8 8.7 6.7 76 1.9 WSW 7 9 4 5 1035.0 - 0.0
29/09:00am 10.5 8.6 6.9 78 1.7 SW 6 7 3 4 1035.0 - 0.0
29/08:45am 10.1 8.3 7.1 81 1.4 SW 6 7 3 4 1035.0 - 0.0
29/08:30am 9.5 7.6 6.9 84 1.2 SSW 6 7 3 4 1034.9 - 0.0
29/08:15am 9.2 7.4 7.1 87 1.0 SSW 6 7 3 4 1034.8 - 0.0
29/08:00am 7.6 4.9 5.6 87 0.9 SSW 9 9 5 5 1034.7 - 0.0
29/07:45am 6.3 3.3 4.1 86 0.9 S 9 11 5 6 1034.5 - 0.0
29/07:30am 6.1 2.7 3.8 85 1.0 S 11 13 6 7 1034.4 - 0.0
29/07:15am 6.3 2.1 4.0 85 1.0 S 15 17 8 9 1034.2 - 0.0
29/07:00am 6.3 2.1 3.9 85 1.0 S 15 17 8 9 1034.1 - 0.0
29/06:45am 6.2 2.0 3.8 85 1.0 S 15 17 8 9 1033.9 - 0.0
29/06:30am 6.5 2.7 4.0 84 1.1 S 13 15 7 8 1033.8 - 0.0
29/06:15am 6.9 3.6 4.3 83 1.1 SSW 11 13 6 7 1033.7 - 0.0
29/06:00am 6.2 2.3 3.4 82 1.2 SSW 13 15 7 8 1033.5 - 0.0
29/05:45am 6.3 2.4 3.3 81 1.3 S 13 15 7 8 1033.5 - 0.0
29/05:30am 6.6 2.7 3.4 80 1.4 S 13 15 7 8 1033.4 - 0.0
29/05:15am 7.0 3.1 3.6 79 1.5 S 13 15 7 8 1033.3 - 0.0
29/05:00am 7.4 4.0 3.8 78 1.6 S 11 13 6 7 1033.2 - 0.0
29/04:45am 8.0 5.0 4.2 77 1.7 S 9 13 5 7 1033.2 - 0.0
29/04:30am 8.3 5.0 4.5 77 1.7 S 11 13 6 7 1033.1 - 0.0
29/04:15am 8.1 4.4 4.3 77 1.7 S 13 13 7 7 1033.1 - 0.0
29/04:00am 7.8 4.4 4.0 77 1.7 S 11 15 6 8 1033.0 - 0.0
29/03:45am 7.7 4.3 3.8 76 1.7 S 11 13 6 7 1033.0 - 0.0
29/03:30am 7.7 4.6 3.8 76 1.7 S 9 13 5 7 1033.1 - 0.0
29/03:15am 7.8 4.4 3.8 76 1.7 SSW 11 17 6 9 1033.1 - 0.0
29/03:00am 7.9 4.2 4.2 77 1.6 SSW 13 17 7 9 1033.1 - 0.0
29/02:45am 8.0 3.6 4.8 80 1.4 SW 17 22 9 12 1033.2 - 0.0
29/02:30am 6.7 1.7 3.7 81 1.3 SSW 19 24 10 13 1033.4 - 0.0
29/02:15am 7.0 3.2 4.1 82 1.3 SSW 13 17 7 9 1033.4 - 0.0
29/02:00am 7.6 2.7 5.1 84 1.1 SW 20 26 11 14 1033.4 - 0.0
29/01:45am 5.5 0.4 3.0 84 1.0 SSW 19 24 10 13 1033.4 - 0.0
29/01:30am 6.2 1.3 3.9 85 1.0 SSW 19 20 10 11 1033.4 - 0.0
29/01:15am 5.6 0.5 3.2 84 1.0 SW 19 20 10 11 1033.3 - 0.0
29/01:00am 5.2 0.0 2.7 84 1.0 SSW 19 20 10 11 1033.4 - 0.0
29/12:45am 5.2 1.2 2.6 83 1.1 SSW 13 19 7 10 1033.5 - 0.0
29/12:30am 5.6 2.0 2.9 83 1.1 SSW 11 13 6 7 1033.5 - 0.0
29/12:15am 5.9 2.7 3.0 82 1.2 SSW 9 11 5 6 1033.4 - 0.0
29/12:00am 5.5 2.6 2.6 81 1.2 SSW 7 11 4 6 1033.4 - 0.0
 
Date/Time
EST
Temp
°C
App
Temp
°C
Dew
Point
Rel
Hum
%
Delta-T
°C
Wind Press
QNH
hPa
Press
MSL
hPa
Rain
since 9 am
mm
Dir
 
Spd
km/h
Gust
km/h
Spd
kts
Gust
kts
28/11:45pm 5.5 1.8 2.4 80 1.3 S 11 13 6 7 1033.5 - 0.0
28/11:30pm 5.9 2.6 2.6 79 1.4 SSW 9 13 5 7 1033.4 - 0.0
28/11:15pm 6.2 3.0 2.8 79 1.4 SSW 9 13 5 7 1033.5 - 0.0
28/11:00pm 7.0 3.1 3.4 78 1.5 SSW 13 13 7 7 1033.6 - 0.0
28/10:45pm 8.0 4.7 4.3 77 1.6 SW 11 13 6 7 1033.6 - 0.0
28/10:30pm 8.1 5.2 4.6 78 1.6 WSW 9 13 5 7 1033.5 - 0.0
28/10:15pm 7.9 5.9 4.4 78 1.5 SW 4 6 2 3 1033.4 - 0.0
28/10:00pm 7.6 5.1 3.9 77 1.6 S 6 7 3 4 1033.3 - 0.0
28/09:45pm 8.0 5.6 4.1 76 1.7 S 6 7 3 4 1033.2 - 0.0
28/09:30pm 8.1 5.5 4.3 77 1.7 SSE 7 9 4 5 1033.3 - 0.0
28/09:15pm 8.0 5.0 4.0 76 1.7 SE 9 11 5 6 1033.2 - 0.0
28/09:00pm 7.8 4.3 3.6 75 1.8 SE 11 13 6 7 1033.1 - 0.0
28/08:45pm 8.5 5.1 3.8 72 2.1 SE 11 13 6 7 1033.1 - 0.0
28/08:30pm 9.2 5.9 4.3 71 2.2 SE 11 13 6 7 1033.0 - 0.0
28/08:15pm 9.4 6.1 4.3 70 2.3 SE 11 13 6 7 1032.9 - 0.0
28/08:00pm 9.6 6.3 4.5 70 2.3 SE 11 13 6 7 1033.0 - 0.0
28/07:45pm 9.5 6.2 4.4 70 2.3 SE 11 13 6 7 1033.1 - 0.0
28/07:30pm 9.5 6.5 4.3 70 2.3 SSE 9 13 5 7 1033.1 - 0.0
28/07:15pm 9.6 6.2 4.2 69 2.4 SSE 11 15 6 8 1033.0 - 0.0
28/07:00pm 9.9 5.8 4.4 68 2.5 SE 15 17 8 9 1032.7 - 0.0
28/06:45pm 10.2 6.5 4.3 67 2.6 SSE 13 17 7 9 1032.5 - 0.0
28/06:30pm 10.7 6.7 4.8 67 2.7 SE 15 17 8 9 1032.3 - 0.0
28/06:15pm 10.4 7.1 4.6 67 2.6 SSE 11 15 6 8 1032.2 - 0.0
28/06:00pm 10.8 7.5 4.5 65 2.9 SSE 11 15 6 8 1032.0 - 0.0
28/05:45pm 11.2 7.5 4.6 64 3.0 SSE 13 17 7 9 1031.8 - 0.0
28/05:30pm 11.7 8.0 4.7 62 3.2 SSE 13 15 7 8 1031.6 - 0.0
28/05:15pm 12.1 8.4 4.6 60 3.4 SSE 13 17 7 9 1031.6 - 0.0
28/05:00pm 12.6 8.9 4.5 58 3.7 SSE 13 17 7 9 1031.4 - 0.0
28/04:45pm 13.2 9.5 4.4 55 4.1 SSE 13 19 7 10 1031.4 - 0.0
28/04:30pm 13.6 9.8 4.1 52 4.4 SSE 13 19 7 10 1031.3 - 0.0
28/04:15pm 13.8 10.4 3.9 51 4.5 SSE 11 17 6 9 1031.3 - 0.0
28/04:00pm 14.1 10.2 3.6 49 4.8 SSE 13 19 7 10 1031.3 - 0.0
28/03:45pm 14.4 10.5 3.6 48 4.9 SSE 13 19 7 10 1031.1 - 0.0
28/03:30pm 14.4 11.0 3.9 49 4.8 SSE 11 17 6 9 1030.9 - 0.0
28/03:15pm 14.8 10.9 3.6 47 5.1 SSE 13 22 7 12 1031.0 - 0.0
28/03:00pm 15.0 11.1 3.6 46 5.2 SSE 13 19 7 10 1030.9 - 0.0
28/02:45pm 14.9 11.8 3.6 46 5.2 SSE 9 17 5 9 1030.9 - 0.0
28/02:30pm 14.4 9.7 3.2 47 5.1 SSE 17 22 9 12 1030.9 - 0.0
28/02:15pm 14.3 10.0 3.2 47 5.0 SSE 15 22 8 12 1030.9 - 0.0
28/02:00pm 14.3 10.4 3.2 47 5.0 SE 13 22 7 12 1030.9 - 0.0
28/01:45pm 14.4 10.0 2.9 46 5.2 SSE 15 24 8 13 1030.9 - 0.0
28/01:30pm 14.3 10.6 2.4 44 5.3 SE 11 19 6 10 1030.9 - 0.0
28/01:15pm 15.4 11.3 2.5 42 5.8 SE 13 22 7 12 1030.9 - 0.0
28/01:00pm 15.5 12.3 2.8 42 5.8 S 9 17 5 9 1031.0 - 0.0
28/12:45pm 15.1 11.0 2.3 42 5.7 SW 13 22 7 12 1031.2 - 0.0
28/12:30pm 15.1 10.7 2.6 43 5.6 SSW 15 24 8 13 1031.5 - 0.0
28/12:15pm 14.9 10.9 2.6 43 5.5 SSW 13 24 7 13 1031.7 - 0.0
28/12:00pm 14.5 10.1 2.5 44 5.4 SW 15 22 8 12 1032.0 - 0.0
28/11:45am 14.4 10.0 2.8 45 5.2 SW 15 24 8 13 1032.3 - 0.0
28/11:30am 13.9 9.9 2.7 46 5.0 SW 13 22 7 12 1032.6 - 0.0
28/11:15am 13.6 9.6 2.7 47 4.9 SW 13 24 7 13 1032.7 - 0.0
28/11:00am 13.3 8.9 2.8 49 4.7 SW 15 22 8 12 1032.8 - 0.0
28/10:45am 12.8 8.5 3.0 51 4.4 SW 15 24 8 13 1033.0 - 0.0
28/10:30am 12.1 7.7 2.6 52 4.2 WSW 15 24 8 13 1033.1 - 0.0
28/10:15am 11.7 6.5 2.4 53 4.0 WSW 19 26 10 14 1033.1 - 0.0
28/10:00am 11.2 6.4 2.4 54 3.8 WSW 17 24 9 13 1033.1 - 0.0
28/09:45am 10.7 5.8 2.2 55 3.6 WSW 17 30 9 16 1033.1 - 0.0
28/09:30am 10.3 5.8 2.0 56 3.5 WSW 15 28 8 15 1033.0 - 0.0
28/09:15am 9.8 4.3 1.9 58 3.3 WSW 20 32 11 17 1032.8 - 0.0
28/09:00am 9.4 2.8 1.8 59 3.2 SW 26 37 14 20 1032.7 - 0.0
28/08:45am 9.0 2.7 1.8 60 3.0 SW 24 33 13 18 1032.6 - 0.0
28/08:30am 8.5 2.6 1.8 63 2.8 SW 22 37 12 20 1032.5 - 0.0
28/08:15am 7.9 2.0 1.6 64 2.6 SW 22 32 12 17 1032.4 - 0.0
28/08:00am 7.4 2.0 1.4 66 2.4 WSW 19 28 10 15 1032.3 - 0.0
28/07:45am 7.0 2.0 1.2 66 2.3 WSW 17 24 9 13 1032.1 - 0.0
28/07:30am 6.7 1.1 1.1 67 2.2 WSW 20 28 11 15 1032.0 - 0.0
28/07:15am 6.5 0.5 1.0 68 2.2 SW 22 32 12 17 1031.8 - 0.0
28/07:00am 6.3 0.7 0.9 68 2.1 SW 20 28 11 15 1031.6 - 0.0
28/06:45am 6.1 0.4 0.8 69 2.1 SW 20 28 11 15 1031.5 - 0.0
28/06:30am 6.1 1.0 0.7 68 2.1 SW 17 22 9 12 1031.3 - 0.0
28/06:15am 6.2 1.8 0.6 67 2.2 SW 13 22 7 12 1031.1 - 0.0
28/06:00am 6.3 1.6 0.8 68 2.2 SW 15 24 8 13 1030.9 - 0.0
28/05:45am 6.2 1.5 0.7 68 2.2 SW 15 22 8 12 1030.7 - 0.0
28/05:30am 6.3 1.2 0.7 67 2.2 SW 17 24 9 13 1030.5 - 0.0
28/05:15am 6.1 0.4 0.7 68 2.1 SW 20 28 11 15 1030.3 - 0.0
28/05:00am 6.1 0.4 0.6 68 2.2 SW 20 28 11 15 1030.2 - 0.0
28/04:45am 6.1 0.6 0.5 67 2.2 SW 19 24 10 13 1030.2 - 0.0
28/04:30am 6.2 0.5 0.6 67 2.2 SW 20 30 11 16 1030.1 - 0.0
28/04:15am 6.2 -0.3 0.6 67 2.2 SW 24 32 13 17 1029.9 - 0.0
28/04:00am 6.2 0.1 0.5 67 2.2 SW 22 30 12 16 1029.8 - 0.0
28/03:45am 6.2 -0.3 0.4 66 2.3 SW 24 32 13 17 1029.6 - 0.0
28/03:30am 6.1 -0.4 0.4 67 2.2 SW 24 30 13 16 1029.6 - 0.0
28/03:15am 6.0 -0.9 0.4 67 2.2 SW 26 32 14 17 1029.6 - 0.0
28/03:00am 5.9 -0.2 0.2 67 2.2 SW 22 26 12 14 1029.6 - 0.0
28/02:45am 5.9 -0.2 0.2 67 2.2 SW 22 28 12 15 1029.6 - 0.0
28/02:30am 5.8 -0.3 0.1 67 2.2 SW 22 26 12 14 1029.6 - 0.0
28/02:15am 5.8 0.0 0.1 67 2.2 SW 20 26 11 14 1029.7 - 0.0

Other Formats:

Comma delimited format used in spreadsheet applications
http://www.bom.gov.au/fwo/IDN60801/IDN60801.95757.axf

JavaScript Object Notation format (JSON) in row-major order
http://www.bom.gov.au/fwo/IDN60801/IDN60801.95757.json